Time Latitude Longitude Accuracy (66% radius in meters) Altitude (meters) Speed (km/hour) Bearing (degrees) Battery (%) GPS flag
11:46:14 55.929480 38.063934 0 0 0 0 1 delete
11:46:10 55.929408 38.063939 0 0 0 0 1 delete
11:46:00 55.929261 38.063858 0 0 0 0 1 delete
11:45:49 55.929083 38.063764 0 0 0 0 1 delete
11:45:33 55.928931 38.063764 0 0 0 0 1 delete
11:45:23 55.929114 38.063796 0 0 0 0 1 delete
11:45:13 55.929263 38.063831 0 0 0 0 1 delete
11:45:12 55.929275 38.063842 0 0 0 0 1 delete
11:45:02 55.929449 38.063955 0 0 0 0 1 delete
11:44:56 55.929551 38.064032 0 0 0 0 1 delete
11:44:51 55.929637 38.064047 0 0 0 0 1 delete
11:44:42 55.929815 38.064024 0 0 0 0 1 delete
11:44:33 55.929960 38.064127 0 0 0 0 1 delete
11:44:32 55.929978 38.064136 0 0 0 0 1 delete
11:44:20 55.930155 38.064207 0 0 0 0 1 delete
11:44:14 55.930248 38.064212 0 0 0 0 1 delete
11:44:05 55.930406 38.064314 0 0 0 0 1 delete
11:43:53 55.930584 38.064316 0 0 0 0 1 delete
11:43:43 55.930713 38.064381 0 0 0 0 1 delete
11:43:36 55.930808 38.064420 0 0 0 0 1 delete
11:43:34 55.930831 38.064437 0 0 0 0 1 delete
11:43:27 55.930893 38.064506 0 0 0 0 1 delete
11:43:25 55.930902 38.064533 0 0 0 0 1 delete
11:43:19 55.930931 38.064625 0 0 0 0 1 delete
11:43:15 55.930964 38.064682 0 0 0 0 1 delete
11:43:10 55.930983 38.064688 0 0 0 0 1 delete
11:43:03 55.930911 38.064562 0 0 0 0 1 delete
11:42:59 55.930866 38.064487 0 0 0 0 1 delete
11:42:53 55.930778 38.064376 0 0 0 0 1 delete
11:42:47 55.930688 38.064328 0 0 0 0 1 delete
11:42:36 55.930509 38.064249 0 0 0 0 1 delete
11:42:23 55.930325 38.064162 0 0 0 0 1 delete
11:42:22 55.930311 38.064160 0 0 0 0 1 delete
11:42:09 55.930136 38.064077 0 0 0 0 1 delete
11:42:04 55.930063 38.064055 0 0 0 0 1 delete
11:41:51 55.929874 38.064024 0 0 0 0 1 delete
11:41:33 55.929736 38.064051 0 0 0 0 1 delete
11:41:15 55.929786 38.064027 0 0 0 0 1 delete
11:41:02 55.929602 38.063982 0 0 0 0 1 delete
11:39:34 55.929621 38.063986 0 0 0 0 1 delete
11:39:30 55.929626 38.064002 0 0 0 0 1 delete
11:39:27 55.929614 38.063993 0 0 0 0 1 delete
11:39:21 55.929493 38.064058 0 0 0 0 1 delete
11:39:18 55.929460 38.064166 0 0 0 0 1 delete
11:39:14 55.929421 38.064377 0 0 0 0 1 delete
11:39:06 55.929427 38.064661 0 0 0 0 1 delete
11:38:57 55.929470 38.064667 0 0 0 0 1 delete
11:38:54 55.929409 38.064640 0 0 0 0 1 delete
11:38:46 55.929216 38.064606 0 0 0 0 1 delete
11:38:39 55.929039 38.064522 0 0 0 0 1 delete